Time;durP1;ratioP1;P1;durP2;ratioP2;P2;SDS_P1;SDS_P2;PMS_P1;PMS_P2;Temp;Humidity;BMP_temperature;BMP_pressure;BME280_temperature;BME280_humidity;BME280_pressure;Samples;Min_cycle;Max_cycle;Signal;HPM_P1;HPM_P2
2022/08/14 00:00:40;;;;;;;3.87;3.57;;;19.40;63.90;;;;;;5080792;28;20448;-85
2022/08/14 00:03:06;;;;;;;3.90;3.63;;;19.40;64.20;;;;;;5080514;28;20490;-85
2022/08/14 00:05:33;;;;;;;4.60;4.20;;;19.30;64.60;;;;;;5080153;28;20534;-85
2022/08/14 00:08:01;;;;;;;5.13;4.80;;;19.20;65.50;;;;;;5080232;28;20460;-85
2022/08/14 00:10:28;;;;;;;4.17;3.87;;;19.20;66.70;;;;;;5080537;28;20814;-85
2022/08/14 00:12:55;;;;;;;4.33;3.83;;;19.20;65.90;;;;;;5080021;28;20454;-84
2022/08/14 00:15:25;;;;;;;4.40;4.10;;;19.10;66.30;;;;;;5080201;28;20451;-84
2022/08/14 00:17:52;;;;;;;4.60;4.20;;;19.10;66.70;;;;;;5080448;28;20459;-85
2022/08/14 00:20:21;;;;;;;5.17;4.87;;;19.00;68.30;;;;;;5080199;28;20447;-85
2022/08/14 00:22:48;;;;;;;5.03;4.67;;;18.90;69.40;;;;;;5080613;28;20459;-84
2022/08/14 00:25:16;;;;;;;5.07;4.77;;;18.90;69.90;;;;;;5081006;28;20478;-84
2022/08/14 00:27:43;;;;;;;5.57;5.13;;;18.90;70.40;;;;;;5079953;28;20455;-84
2022/08/14 00:30:11;;;;;;;4.70;4.40;;;18.80;70.60;;;;;;5080859;28;20455;-84
2022/08/14 00:32:39;;;;;;;4.53;4.23;;;18.80;70.90;;;;;;5080064;28;20491;-84
2022/08/14 00:35:07;;;;;;;4.80;4.40;;;18.80;71.30;;;;;;5079973;28;20472;-84
2022/08/14 00:37:35;;;;;;;4.70;4.40;;;18.70;72.10;;;;;;5079742;28;20960;-84
2022/08/14 00:40:02;;;;;;;5.33;5.03;;;18.60;72.10;;;;;;5081432;28;20458;-84
2022/08/14 00:42:30;;;;;;;5.20;4.80;;;18.50;73.10;;;;;;5081872;28;20443;-84
2022/08/14 00:44:57;;;;;;;4.80;4.43;;;18.40;73.50;;;;;;5082026;28;20514;-84
2022/08/14 00:47:24;;;;;;;4.03;3.73;;;18.30;73.90;;;;;;5081061;28;20478;-84
2022/08/14 00:49:52;;;;;;;4.73;4.33;;;18.10;74.90;;;;;;5082740;28;20458;-84
2022/08/14 00:52:21;;;;;;;4.80;4.40;;;18.10;75.60;;;;;;5082729;28;20447;-83
2022/08/14 00:54:53;;;;;;;4.30;4.00;;;18.10;75.70;;;;;;5081737;28;20825;-84
2022/08/14 00:57:20;;;;;;;4.47;4.13;;;18.10;75.70;;;;;;5081904;28;20511;-84
2022/08/14 00:59:49;;;;;;;4.37;4.10;;;18.10;76.40;;;;;;5082264;28;20554;-82
2022/08/14 01:02:18;;;;;;;4.80;4.47;;;18.10;76.70;;;;;;5082081;28;20451;-85
2022/08/14 01:04:46;;;;;;;4.60;4.30;;;18.10;77.50;;;;;;5081482;28;20571;-84
2022/08/14 01:07:19;;;;;;;5.00;4.70;;;18.00;78.10;;;;;;5081739;28;20461;-85
2022/08/14 01:09:48;;;;;;;4.63;4.30;;;18.00;77.90;;;;;;5082136;28;20455;-85
2022/08/14 01:12:16;;;;;;;4.40;4.10;;;18.00;78.30;;;;;;5081329;28;20497;-84
2022/08/14 01:14:43;;;;;;;4.80;4.40;;;18.00;79.10;;;;;;5080908;28;20969;-84
2022/08/14 01:17:12;;;;;;;5.10;4.60;;;18.00;80.10;;;;;;5081699;28;20458;-84
2022/08/14 01:22:24;;;;;;;9.13;5.03;;;17.90;80.50;;;;;;5081552;28;20477;-84
2022/08/14 01:24:52;;;;;;;5.37;3.90;;;17.80;80.20;;;;;;5081272;28;20494;-83
2022/08/14 01:27:21;;;;;;;4.67;4.30;;;17.80;80.80;;;;;;5081727;28;20454;-84
2022/08/14 01:29:52;;;;;;;4.27;3.97;;;17.80;81.40;;;;;;5080655;28;20446;-82
2022/08/14 01:32:20;;;;;;;4.40;4.07;;;17.80;81.90;;;;;;5081936;28;20666;-85
2022/08/14 01:34:49;;;;;;;5.30;5.00;;;17.80;82.20;;;;;;5082531;28;20463;-85
2022/08/14 01:37:15;;;;;;;4.97;4.67;;;17.80;82.60;;;;;;5083008;28;20473;-85
2022/08/14 01:39:44;;;;;;;4.77;4.47;;;17.70;83.00;;;;;;5082367;28;21054;-83
2022/08/14 01:42:10;;;;;;;4.50;4.10;;;17.70;83.50;;;;;;5080312;28;20451;-85
2022/08/14 01:44:38;;;;;;;4.20;3.90;;;17.70;83.80;;;;;;5080175;28;20525;-86
2022/08/14 01:47:11;;;;;;;4.93;4.63;;;17.60;84.20;;;;;;5079116;28;20477;-84
2022/08/14 01:49:37;;;;;;;5.07;4.57;;;17.60;85.80;;;;;;5059604;28;20832;-87
2022/08/14 01:52:05;;;;;;;4.60;4.30;;;17.50;86.10;;;;;;5073634;28;20458;-85
2022/08/14 01:54:33;;;;;;;4.70;4.40;;;17.50;86.90;;;;;;5079171;28;20468;-84
2022/08/14 01:57:01;;;;;;;4.57;4.27;;;17.50;87.90;;;;;;5079567;28;20467;-83
2022/08/14 01:59:31;;;;;;;4.53;4.33;;;17.40;88.00;;;;;;5079828;28;20461;-84
2022/08/14 02:02:02;;;;;;;4.97;4.57;;;17.40;88.30;;;;;;5080108;28;20454;-84
2022/08/14 02:04:34;;;;;;;4.63;4.33;;;17.40;88.80;;;;;;5079617;28;20497;-82
2022/08/14 02:07:02;;;;;;;4.40;4.10;;;17.30;88.90;;;;;;5059005;28;20461;-81
2022/08/14 02:09:32;;;;;;;5.60;5.20;;;17.30;89.30;;;;;;5059085;28;21029;-84
2022/08/14 02:11:59;;;;;;;4.90;4.50;;;17.30;89.80;;;;;;5078340;28;20462;-84
2022/08/14 02:14:27;;;;;;;5.20;4.80;;;17.30;90.20;;;;;;5078283;28;20478;-84
2022/08/14 02:16:56;;;;;;;4.47;4.07;;;17.20;90.20;;;;;;5082709;28;20451;-86
2022/08/14 02:19:25;;;;;;;5.03;4.63;;;17.10;90.30;;;;;;5087256;28;20450;-86
2022/08/14 02:21:54;;;;;;;4.63;4.33;;;17.10;90.50;;;;;;5086972;28;20450;-85
2022/08/14 02:24:23;;;;;;;5.20;4.80;;;17.10;90.60;;;;;;5079445;28;20946;-83
2022/08/14 02:26:52;;;;;;;4.43;4.13;;;17.10;91.10;;;;;;5080096;28;20454;-85
2022/08/14 02:29:21;;;;;;;3.67;3.43;;;17.10;91.10;;;;;;5079732;28;20549;-84
2022/08/14 02:31:52;;;;;;;4.20;3.90;;;17.10;91.30;;;;;;5079680;28;20483;-85
2022/08/14 02:34:21;;;;;;;4.73;4.33;;;17.00;91.40;;;;;;5078382;28;20481;-85
2022/08/14 02:36:51;;;;;;;4.60;4.30;;;17.00;91.40;;;;;;5079693;28;20453;-84
2022/08/14 02:39:18;;;;;;;5.07;4.77;;;17.00;91.40;;;;;;5079478;28;20455;-84
2022/08/14 02:41:50;;;;;;;4.70;4.40;;;17.00;91.50;;;;;;5079260;28;20954;-85
2022/08/14 02:44:19;;;;;;;4.93;4.63;;;17.00;92.00;;;;;;5112559;23;20515;-79
2022/08/14 02:46:49;;;;;;;5.07;4.77;;;17.00;92.20;;;;;;5115240;28;20473;-78
2022/08/14 02:49:16;;;;;;;4.40;4.10;;;16.90;92.30;;;;;;5114515;28;20455;-78
2022/08/14 02:51:47;;;;;;;4.60;4.20;;;16.90;92.20;;;;;;5114704;28;20460;-79
2022/08/14 02:54:14;;;;;;;5.00;4.70;;;16.90;92.30;;;;;;5114530;28;20472;-78
2022/08/14 02:56:41;;;;;;;4.60;4.40;;;16.90;92.40;;;;;;5114799;28;20546;-79
2022/08/14 02:59:12;;;;;;;4.57;4.27;;;16.90;92.50;;;;;;5115161;28;20500;-78
2022/08/14 03:01:40;;;;;;;4.40;4.10;;;16.90;92.60;;;;;;5115064;28;20452;-78
2022/08/14 03:04:09;;;;;;;4.20;4.00;;;16.90;92.80;;;;;;5114853;28;20519;-78
2022/08/14 03:06:37;;;;;;;4.87;4.63;;;16.80;92.90;;;;;;5114494;28;20515;-78
2022/08/14 03:09:04;;;;;;;5.27;4.97;;;16.80;93.00;;;;;;5114642;28;20480;-78
2022/08/14 03:11:31;;;;;;;4.73;4.40;;;16.80;93.10;;;;;;5120366;28;20683;-78
2022/08/14 03:13:58;;;;;;;4.90;4.10;;;16.80;93.10;;;;;;5100823;28;20477;-78
2022/08/14 03:16:26;;;;;;;5.17;4.87;;;16.80;93.20;;;;;;5094432;28;20460;-78
2022/08/14 03:18:57;;;;;;;4.47;4.17;;;16.80;93.20;;;;;;5113145;28;20547;-78
2022/08/14 03:21:25;;;;;;;5.37;5.07;;;16.70;93.30;;;;;;5114591;28;20850;-78
2022/08/14 03:23:59;;;;;;;5.23;4.90;;;16.70;93.20;;;;;;5113526;28;20896;-79
2022/08/14 03:26:28;;;;;;;4.67;4.30;;;16.70;93.40;;;;;;5114751;28;20444;-80
2022/08/14 03:28:54;;;;;;;4.37;4.07;;;16.60;93.70;;;;;;5114477;28;20506;-78
2022/08/14 03:31:22;;;;;;;5.57;5.10;;;16.60;94.20;;;;;;5114706;28;20479;-78
2022/08/14 03:33:50;;;;;;;4.90;4.60;;;16.60;94.30;;;;;;5115049;28;20468;-78
2022/08/14 03:36:20;;;;;;;4.90;4.60;;;16.60;94.30;;;;;;5118762;28;20448;-78
2022/08/14 03:38:51;;;;;;;5.10;4.80;;;16.60;94.30;;;;;;5119385;28;20877;-78
2022/08/14 03:41:20;;;;;;;5.30;4.80;;;16.60;94.40;;;;;;5119675;28;20976;-78
2022/08/14 03:43:49;;;;;;;5.60;5.13;;;16.50;94.90;;;;;;5117702;28;20486;-78
2022/08/14 03:46:17;;;;;;;5.83;5.17;;;16.40;94.80;;;;;;5118135;28;20514;-78
2022/08/14 03:48:45;;;;;;;4.93;4.63;;;16.40;94.90;;;;;;5117537;28;20439;-79
2022/08/14 03:51:12;;;;;;;5.20;4.90;;;16.40;94.90;;;;;;5117759;28;20544;-79
2022/08/14 03:53:41;;;;;;;6.20;5.80;;;16.40;95.00;;;;;;5117816;28;20491;-79
2022/08/14 03:56:12;;;;;;;4.97;4.67;;;16.40;95.00;;;;;;5117209;28;20492;-79
2022/08/14 03:58:40;;;;;;;7.67;5.30;;;16.40;95.20;;;;;;5118020;28;21016;-79
2022/08/14 04:01:08;;;;;;;5.70;5.30;;;16.40;95.30;;;;;;5117609;28;20574;-79
2022/08/14 04:03:35;;;;;;;6.20;5.70;;;16.30;95.40;;;;;;5117108;28;20444;-79
2022/08/14 04:06:02;;;;;;;5.87;5.37;;;16.30;95.60;;;;;;5125654;28;20474;-79
2022/08/14 04:08:29;;;;;;;4.20;4.00;;;16.30;95.60;;;;;;5122649;28;20439;-79
2022/08/14 04:10:56;;;;;;;5.20;4.90;;;16.20;95.60;;;;;;5117908;28;20449;-79
2022/08/14 04:13:24;;;;;;;5.33;4.93;;;16.20;95.60;;;;;;5117667;28;20756;-79
2022/08/14 04:15:51;;;;;;;6.83;4.83;;;16.20;95.90;;;;;;5117315;28;20439;-79
2022/08/14 04:18:17;;;;;;;6.07;5.33;;;16.20;95.90;;;;;;5117439;28;20459;-79
2022/08/14 04:20:44;;;;;;;4.70;4.40;;;16.20;96.00;;;;;;5117906;28;20448;-79
2022/08/14 04:23:12;;;;;;;5.67;5.20;;;16.20;96.10;;;;;;5117398;28;20513;-79
2022/08/14 04:25:39;;;;;;;4.57;4.17;;;16.10;96.60;;;;;;5117048;28;20491;-79
2022/08/14 04:28:08;;;;;;;4.90;4.60;;;16.20;96.70;;;;;;5117158;28;20447;-80
2022/08/14 04:30:38;;;;;;;6.30;5.40;;;16.20;96.60;;;;;;5117336;28;20486;-79
2022/08/14 04:33:05;;;;;;;5.73;5.23;;;16.20;96.80;;;;;;5117294;28;20460;-79
2022/08/14 04:35:32;;;;;;;4.47;4.17;;;16.30;97.00;;;;;;5117246;28;20474;-79
2022/08/14 04:43:37;;;;;;;4.90;4.50;;;16.30;96.70;;;;;;5116877;28;20528;-79
2022/08/14 04:46:06;;;;;;;5.70;5.17;;;16.40;96.70;;;;;;5115445;28;20824;-80
2022/08/14 04:48:32;;;;;;;5.33;5.03;;;16.30;96.50;;;;;;5108159;28;20444;-79
2022/08/14 04:51:00;;;;;;;4.73;4.33;;;16.40;96.80;;;;;;5106711;28;20797;-80
2022/08/14 04:53:29;;;;;;;6.00;5.60;;;16.40;96.70;;;;;;5107160;28;20967;-79
2022/08/14 04:55:57;;;;;;;7.20;5.30;;;16.40;96.70;;;;;;5106766;28;20452;-80
2022/08/14 04:58:26;;;;;;;5.80;5.40;;;16.50;96.60;;;;;;5107427;28;20473;-79
2022/08/14 05:00:55;;;;;;;4.63;4.37;;;16.50;96.80;;;;;;5124984;28;20440;-80
2022/08/14 05:03:25;;;;;;;5.60;5.10;;;16.60;96.40;;;;;;5107488;28;20520;-79
2022/08/14 05:05:54;;;;;;;5.07;4.77;;;16.70;96.60;;;;;;5109640;28;20482;-79
2022/08/14 05:08:21;;;;;;;4.87;4.57;;;16.70;96.40;;;;;;5107207;28;20446;-79
2022/08/14 05:10:51;;;;;;;5.37;4.97;;;16.80;96.10;;;;;;5108380;28;20528;-79
2022/08/14 05:13:18;;;;;;;5.67;5.20;;;16.80;95.90;;;;;;5103169;28;20449;-79
2022/08/14 05:15:46;;;;;;;5.03;4.73;;;16.90;96.00;;;;;;5109724;28;20448;-79
2022/08/14 05:18:15;;;;;;;5.80;5.40;;;16.90;95.80;;;;;;5109797;28;20460;-79
2022/08/14 05:20:45;;;;;;;5.70;5.30;;;17.00;95.90;;;;;;5104987;28;20452;-79
2022/08/14 05:23:13;;;;;;;5.37;5.00;;;16.90;95.70;;;;;;5112581;28;20828;-79
2022/08/14 05:25:40;;;;;;;4.73;4.40;;;16.90;95.80;;;;;;5104479;28;21069;-79
2022/08/14 05:28:08;;;;;;;5.30;5.00;;;17.00;95.80;;;;;;5108484;28;20964;-79
2022/08/14 05:30:35;;;;;;;5.53;5.23;;;17.10;95.50;;;;;;5106423;28;20445;-79
2022/08/14 05:33:02;;;;;;;5.23;4.83;;;17.20;95.60;;;;;;5107043;28;20455;-79
2022/08/14 05:35:28;;;;;;;5.47;5.17;;;17.30;95.60;;;;;;5107932;28;20468;-79
2022/08/14 05:37:56;;;;;;;5.60;5.20;;;17.40;95.70;;;;;;5105896;28;20965;-79
2022/08/14 05:40:24;;;;;;;6.40;5.80;;;17.50;95.50;;;;;;5106913;28;20445;-79
2022/08/14 05:42:50;;;;;;;6.70;6.20;;;17.60;95.90;;;;;;5106702;28;20487;-79
2022/08/14 05:45:18;;;;;;;6.03;5.67;;;17.60;96.10;;;;;;5108705;28;20568;-79
2022/08/14 05:47:45;;;;;;;5.93;5.53;;;17.70;96.00;;;;;;5114344;28;20460;-79
2022/08/14 05:50:14;;;;;;;5.90;5.60;;;17.80;95.80;;;;;;5115103;28;20445;-79
2022/08/14 05:52:40;;;;;;;7.43;4.97;;;17.90;95.70;;;;;;5094349;28;20453;-80
2022/08/14 05:55:10;;;;;;;5.73;5.17;;;17.90;95.80;;;;;;5106971;28;20515;-80
2022/08/14 05:57:48;;;;;;;6.07;5.67;;;17.90;94.80;;;;;;5113504;28;20457;-80
2022/08/14 06:00:16;;;;;;;5.00;4.70;;;18.00;95.30;;;;;;5114579;28;20445;-80
2022/08/14 06:02:43;;;;;;;6.00;5.60;;;18.10;95.60;;;;;;5114473;28;20457;-79
2022/08/14 06:05:10;;;;;;;5.33;4.93;;;18.20;95.80;;;;;;5114359;28;20481;-79
2022/08/14 06:07:38;;;;;;;7.63;7.03;;;18.20;95.40;;;;;;5114587;28;20820;-79
2022/08/14 06:10:05;;;;;;;6.10;5.60;;;18.30;95.80;;;;;;5114092;28;20455;-79
2022/08/14 06:12:34;;;;;;;6.27;5.77;;;18.40;95.90;;;;;;5114134;28;20457;-79
2022/08/14 06:15:01;;;;;;;4.33;4.10;;;18.50;95.00;;;;;;5114309;28;20823;-80
2022/08/14 06:17:27;;;;;;;6.40;6.00;;;18.60;94.40;;;;;;5114509;28;20457;-80
2022/08/14 06:19:54;;;;;;;5.20;4.80;;;18.60;94.30;;;;;;5113847;28;20449;-80
2022/08/14 06:22:21;;;;;;;5.60;5.30;;;18.70;94.60;;;;;;5113800;28;20458;-80
2022/08/14 06:24:48;;;;;;;5.47;5.07;;;18.80;94.30;;;;;;5113574;28;20847;-80
2022/08/14 06:27:15;;;;;;;5.67;5.27;;;18.90;93.80;;;;;;5114378;28;20452;-80
2022/08/14 06:29:43;;;;;;;5.27;4.77;;;19.00;93.20;;;;;;5114206;28;20452;-80
2022/08/14 06:32:10;;;;;;;6.30;5.80;;;19.10;93.10;;;;;;5114366;28;20448;-80
2022/08/14 06:34:38;;;;;;;5.43;5.03;;;19.20;93.50;;;;;;5113920;28;20478;-80
2022/08/14 06:37:05;;;;;;;5.43;5.03;;;19.30;93.70;;;;;;5113929;28;20449;-80
2022/08/14 06:39:32;;;;;;;5.93;5.10;;;19.40;92.90;;;;;;5113611;28;20446;-81
2022/08/14 06:42:03;;;;;;;5.57;5.17;;;19.50;91.40;;;;;;5115047;28;20456;-79
2022/08/14 06:44:30;;;;;;;4.70;4.40;;;19.60;91.80;;;;;;5070014;28;1270478;-79
2022/08/14 06:46:59;;;;;;;4.53;4.23;;;19.70;90.60;;;;;;5117666;28;20227;-79
2022/08/14 06:49:27;;;;;;;4.50;4.10;;;19.80;87.20;;;;;;5120927;28;20473;-79
2022/08/14 06:51:54;;;;;;;5.30;4.90;;;19.90;89.20;;;;;;5117188;28;20448;-80
2022/08/14 06:54:21;;;;;;;5.10;4.70;;;20.10;87.00;;;;;;5114228;28;20917;-80
2022/08/14 06:56:48;;;;;;;3.87;3.70;;;20.20;88.50;;;;;;5114606;28;20447;-80
2022/08/14 06:59:15;;;;;;;5.20;4.80;;;20.30;87.40;;;;;;5114908;28;20444;-80
2022/08/14 07:07:11;;;;;;;4.50;4.10;;;20.60;86.70;;;;;;5114958;28;20443;-82
2022/08/14 07:09:38;;;;;;;4.23;4.00;;;20.80;86.90;;;;;;5117636;28;20430;-82
2022/08/14 07:12:05;;;;;;;9.57;4.37;;;20.90;84.40;;;;;;5119513;28;20446;-82
2022/08/14 07:14:32;;;;;;;4.93;4.53;;;20.90;84.70;;;;;;5122406;28;20468;-81
2022/08/14 07:16:59;;;;;;;3.80;3.60;;;21.10;86.80;;;;;;5122669;28;20448;-81
2022/08/14 07:19:27;;;;;;;4.90;4.50;;;21.20;86.00;;;;;;5123386;28;20451;-80
2022/08/14 07:21:53;;;;;;;5.27;4.87;;;21.30;82.00;;;;;;5122561;28;20445;-81
2022/08/14 07:24:20;;;;;;;3.97;3.73;;;21.40;80.60;;;;;;5122229;28;20497;-80
2022/08/14 07:26:47;;;;;;;4.03;3.83;;;21.40;80.50;;;;;;5122452;28;20547;-81
2022/08/14 07:29:14;;;;;;;4.03;3.73;;;21.40;78.80;;;;;;5122012;28;20445;-80
2022/08/14 07:31:40;;;;;;;4.00;3.80;;;21.50;79.50;;;;;;5123003;28;20441;-81
2022/08/14 07:34:07;;;;;;;4.40;4.20;;;21.60;76.70;;;;;;5125118;28;20472;-80
2022/08/14 07:36:35;;;;;;;4.03;3.83;;;21.60;76.60;;;;;;5122565;28;20824;-80
2022/08/14 07:39:03;;;;;;;4.03;3.77;;;21.70;75.60;;;;;;5121844;28;20475;-80
2022/08/14 07:41:30;;;;;;;3.97;3.57;;;21.70;76.30;;;;;;5121217;28;20446;-80
2022/08/14 07:43:57;;;;;;;3.77;3.57;;;21.80;77.10;;;;;;5125886;28;20460;-79
2022/08/14 07:46:24;;;;;;;4.23;3.93;;;21.90;75.50;;;;;;5126477;28;20493;-80
2022/08/14 07:48:50;;;;;;;4.40;4.00;;;21.90;74.70;;;;;;5121834;28;20449;-81
2022/08/14 07:51:19;;;;;;;4.57;3.47;;;22.00;73.30;;;;;;5121643;28;20460;-81
2022/08/14 07:53:47;;;;;;;3.67;3.47;;;22.10;73.00;;;;;;5120755;28;20480;-81
2022/08/14 07:56:14;;;;;;;4.07;3.87;;;22.30;74.60;;;;;;5122122;28;20446;-81
2022/08/14 07:58:40;;;;;;;3.77;3.33;;;22.40;74.10;;;;;;5121624;28;20445;-80
2022/08/14 08:01:08;;;;;;;4.17;3.57;;;22.50;73.90;;;;;;5121190;28;20441;-81
2022/08/14 08:03:35;;;;;;;3.33;3.13;;;22.60;72.00;;;;;;5121186;28;20934;-81
2022/08/14 08:06:02;;;;;;;5.77;3.83;;;22.80;71.00;;;;;;5120551;28;20572;-80
2022/08/14 08:08:30;;;;;;;3.53;3.33;;;22.90;70.90;;;;;;5120120;28;20457;-80
2022/08/14 08:10:59;;;;;;;3.70;3.47;;;23.00;68.70;;;;;;5120305;28;20838;-79
2022/08/14 08:13:27;;;;;;;3.50;3.30;;;23.10;69.40;;;;;;5120971;28;20450;-80
2022/08/14 08:15:56;;;;;;;3.50;3.30;;;23.20;69.40;;;;;;5122557;28;20818;-81
2022/08/14 08:18:24;;;;;;;3.50;3.30;;;23.30;68.70;;;;;;5121062;28;20446;-80
2022/08/14 08:20:53;;;;;;;4.30;4.00;;;23.50;67.30;;;;;;5121290;28;20441;-81
2022/08/14 08:23:21;;;;;;;3.70;3.40;;;23.60;67.30;;;;;;5122922;28;20461;-82
2022/08/14 08:25:49;;;;;;;3.50;3.20;;;23.80;65.70;;;;;;5124394;28;20489;-81
2022/08/14 08:28:20;;;;;;;4.73;4.33;;;23.80;65.80;;;;;;5125333;28;20476;-82
2022/08/14 08:30:50;;;;;;;4.27;3.97;;;24.00;64.50;;;;;;5128399;28;20822;-81
2022/08/14 08:33:18;;;;;;;3.80;3.60;;;24.00;65.60;;;;;;5123687;28;20447;-82
2022/08/14 08:35:44;;;;;;;3.73;3.53;;;24.10;65.20;;;;;;5125982;28;20446;-82
2022/08/14 08:38:13;;;;;;;3.90;3.70;;;24.20;62.80;;;;;;5129160;27;20443;-80
2022/08/14 08:40:42;;;;;;;4.00;3.80;;;24.40;61.10;;;;;;5130728;28;20514;-81
2022/08/14 08:43:16;;;;;;;3.87;3.57;;;24.40;61.60;;;;;;5125127;28;20459;-82
2022/08/14 08:45:50;;;;;;;6.03;4.60;;;24.50;62.70;;;;;;5123922;28;20486;-82
2022/08/14 08:48:17;;;;;;;3.97;3.63;;;24.60;61.60;;;;;;5121167;28;20450;-82
2022/08/14 08:50:44;;;;;;;4.27;3.83;;;24.70;60.10;;;;;;5120377;28;20459;-82
2022/08/14 08:53:10;;;;;;;3.87;3.60;;;24.80;60.50;;;;;;5100828;28;20451;-82
2022/08/14 08:55:40;;;;;;;3.97;3.77;;;24.90;62.30;;;;;;5106349;28;20465;-81
2022/08/14 08:58:08;;;;;;;3.97;3.77;;;25.00;59.60;;;;;;5120771;28;20459;-81
2022/08/14 09:00:37;;;;;;;3.70;3.50;;;25.20;61.90;;;;;;5119852;28;20454;-82
2022/08/14 09:03:07;;;;;;;3.67;3.43;;;25.30;60.50;;;;;;5119318;28;20784;-82
2022/08/14 09:05:36;;;;;;;3.67;3.43;;;25.40;60.60;;;;;;5119917;28;20468;-83
2022/08/14 09:08:15;;;;;;;3.03;2.90;;;25.60;57.30;;;;;;5118427;28;20446;-83
2022/08/14 09:10:42;;;;;;;3.93;3.60;;;25.60;58.20;;;;;;5112156;28;20446;-82
2022/08/14 09:13:10;;;;;;;4.60;4.30;;;25.70;57.10;;;;;;5107811;28;20449;-84
2022/08/14 09:15:38;;;;;;;4.83;4.50;;;25.90;58.00;;;;;;5111375;28;20471;-82
2022/08/14 09:18:09;;;;;;;4.10;3.40;;;26.00;56.70;;;;;;5116076;28;20445;-83
2022/08/14 09:20:38;;;;;;;3.97;3.70;;;26.10;55.90;;;;;;5113045;28;20446;-82
2022/08/14 09:23:05;;;;;;;3.87;3.60;;;26.10;56.20;;;;;;5126235;28;20438;-84
2022/08/14 09:25:32;;;;;;;4.80;4.40;;;26.20;57.20;;;;;;5118819;28;20473;-83
2022/08/14 09:27:59;;;;;;;4.20;4.00;;;26.30;53.70;;;;;;5114257;28;20928;-83
2022/08/14 09:30:26;;;;;;;5.00;4.60;;;26.50;54.20;;;;;;5116560;28;20442;-82
2022/08/14 09:33:07;;;;;;;4.20;3.90;;;26.50;53.60;;;;;;5116332;28;20448;-83
2022/08/14 09:35:48;;;;;;;4.07;3.87;;;26.60;54.50;;;;;;5116119;28;20537;-83
2022/08/14 09:38:23;;;;;;;4.37;3.93;;;26.60;54.60;;;;;;5124184;28;20454;-83
2022/08/14 09:40:59;;;;;;;3.20;3.10;;;26.80;53.60;;;;;;5127337;28;20451;-83
2022/08/14 09:43:31;;;;;;;4.17;3.97;;;26.90;53.50;;;;;;5126368;28;20436;-82
2022/08/14 09:45:58;;;;;;;4.53;4.20;;;27.00;52.30;;;;;;5115690;28;20976;-84
2022/08/14 09:48:27;;;;;;;5.20;4.80;;;27.00;54.30;;;;;;5104006;28;20436;-84
2022/08/14 09:50:56;;;;;;;4.20;4.00;;;27.10;54.90;;;;;;5118117;28;20460;-84
2022/08/14 09:53:36;;;;;;;4.37;4.10;;;27.20;53.20;;;;;;5103388;28;20942;-84
2022/08/14 09:56:04;;;;;;;3.57;3.37;;;27.30;51.90;;;;;;5097427;28;20976;-84
2022/08/14 09:58:39;;;;;;;4.13;3.83;;;27.40;51.00;;;;;;5111570;28;20446;-84
2022/08/14 10:01:11;;;;;;;3.70;3.50;;;27.40;51.30;;;;;;5118697;28;20449;-84
2022/08/14 10:03:48;;;;;;;4.20;4.00;;;27.60;52.00;;;;;;5116841;28;20608;-84
2022/08/14 10:06:18;;;;;;;4.43;4.23;;;27.80;51.40;;;;;;5118701;28;20472;-84
2022/08/14 10:08:49;;;;;;;3.97;3.67;;;27.90;50.90;;;;;;5118866;28;20449;-83
2022/08/14 10:11:19;;;;;;;4.03;3.83;;;28.00;50.90;;;;;;5119517;28;20448;-84
2022/08/14 10:13:48;;;;;;;4.27;3.97;;;28.10;50.50;;;;;;5115840;28;20487;-84
2022/08/14 10:16:15;;;;;;;4.27;4.07;;;28.30;50.10;;;;;;5111022;28;20455;-84
2022/08/14 10:18:42;;;;;;;4.17;3.97;;;28.40;48.90;;;;;;5100975;28;20447;-85
2022/08/14 10:21:16;;;;;;;4.10;3.90;;;28.60;49.70;;;;;;5112950;28;20458;-84
2022/08/14 10:23:48;;;;;;;4.00;3.77;;;28.70;49.20;;;;;;5118071;28;20992;-84
2022/08/14 10:26:17;;;;;;;4.60;4.40;;;28.80;48.30;;;;;;5128347;27;20481;-85
2022/08/14 10:28:47;;;;;;;4.30;3.90;;;29.00;47.80;;;;;;5118918;28;20777;-84
2022/08/14 10:31:22;;;;;;;3.50;3.30;;;29.30;49.10;;;;;;5118097;28;21004;-84
2022/08/14 10:34:03;;;;;;;4.60;4.30;;;29.50;47.60;;;;;;5118989;28;20568;-86
2022/08/14 10:36:34;;;;;;;4.20;4.00;;;29.70;44.90;;;;;;5117931;28;20864;-86
2022/08/14 10:39:07;;;;;;;4.03;3.73;;;29.90;45.30;;;;;;5120469;28;20423;-84
2022/08/14 10:41:39;;;;;;;4.37;4.07;;;30.10;43.90;;;;;;5119451;28;20545;-84
2022/08/14 10:44:10;;;;;;;4.07;3.80;;;30.10;43.60;;;;;;5116971;28;20920;-84
2022/08/14 10:46:45;;;;;;;4.30;4.00;;;30.30;42.60;;;;;;5118014;28;20481;-83
2022/08/14 10:49:23;;;;;;;4.50;4.20;;;30.30;41.60;;;;;;5119074;28;20828;-84
2022/08/14 10:52:01;;;;;;;4.23;4.00;;;30.50;43.40;;;;;;5120117;28;20463;-84
2022/08/14 10:54:35;;;;;;;4.63;4.30;;;30.70;41.60;;;;;;5118066;28;20475;-81
2022/08/14 10:57:12;;;;;;;4.47;4.00;;;30.90;42.70;;;;;;5097598;28;20458;-81
2022/08/14 10:59:44;;;;;;;4.80;4.50;;;31.10;41.70;;;;;;5109499;28;20973;-83
2022/08/14 11:02:28;;;;;;;4.60;4.20;;;31.50;41.90;;;;;;5116787;28;20444;-81
2022/08/14 11:05:17;;;;;;;4.03;3.73;;;31.80;43.50;;;;;;5119900;28;20511;-84
2022/08/14 11:07:56;;;;;;;4.43;4.23;;;32.10;40.70;;;;;;5114959;28;20491;-85
2022/08/14 11:10:27;;;;;;;5.63;4.80;;;32.30;40.70;;;;;;5121408;28;20883;-84
2022/08/14 11:12:56;;;;;;;3.87;3.67;;;32.80;40.90;;;;;;5121639;28;20457;-85
2022/08/14 11:15:25;;;;;;;3.87;3.67;;;33.30;39.50;;;;;;5121161;28;20477;-85
2022/08/14 11:17:52;;;;;;;4.10;3.90;;;33.80;39.50;;;;;;5121547;28;20450;-85
2022/08/14 11:20:21;;;;;;;4.20;3.90;;;34.20;37.50;;;;;;5122238;28;20456;-86
2022/08/14 11:22:53;;;;;;;5.10;4.80;;;34.60;37.30;;;;;;5122088;28;20445;-85
2022/08/14 11:25:22;;;;;;;4.20;4.00;;;34.90;36.20;;;;;;5121086;28;20513;-85
2022/08/14 11:27:52;;;;;;;4.20;3.87;;;35.30;36.00;;;;;;5121466;28;20478;-85
2022/08/14 11:30:21;;;;;;;4.53;4.23;;;35.90;35.10;;;;;;5122104;28;20812;-85
2022/08/14 11:32:50;;;;;;;4.30;4.00;;;36.30;33.60;;;;;;5122863;28;20453;-86
2022/08/14 11:35:18;;;;;;;4.30;4.07;;;36.80;33.80;;;;;;5122199;28;20469;-85
2022/08/14 11:37:55;;;;;;;4.07;3.87;;;37.10;32.20;;;;;;5122224;28;20442;-85
2022/08/14 11:40:24;;;;;;;3.93;3.73;;;37.50;32.20;;;;;;5122276;28;20449;-85
2022/08/14 11:42:54;;;;;;;3.63;3.43;;;37.90;32.80;;;;;;5123111;28;20452;-85
2022/08/14 11:45:22;;;;;;;3.80;3.50;;;38.40;30.30;;;;;;5123403;28;20473;-85
2022/08/14 11:47:49;;;;;;;3.83;3.63;;;38.70;28.90;;;;;;5124282;28;20477;-85
2022/08/14 11:50:18;;;;;;;3.97;3.77;;;38.80;29.60;;;;;;5124764;28;20450;-85
2022/08/14 11:52:45;;;;;;;4.57;4.27;;;39.10;28.90;;;;;;5124922;28;20477;-85
2022/08/14 11:55:15;;;;;;;4.30;4.10;;;39.30;29.10;;;;;;5123283;28;20466;-85
2022/08/14 11:57:43;;;;;;;3.50;3.30;;;39.60;28.10;;;;;;5129972;28;20449;-84
2022/08/14 12:00:14;;;;;;;5.00;4.40;;;39.60;27.90;;;;;;5129938;28;20445;-85
2022/08/14 12:02:51;;;;;;;4.30;4.10;;;39.90;27.10;;;;;;5129185;28;20461;-85
2022/08/14 12:05:29;;;;;;;3.87;3.67;;;40.00;27.50;;;;;;5129588;28;20469;-85
2022/08/14 12:07:56;;;;;;;4.37;4.07;;;40.40;27.20;;;;;;5131124;28;20557;-85
2022/08/14 12:10:23;;;;;;;3.53;3.33;;;40.70;27.40;;;;;;5131084;28;20445;-84
2022/08/14 12:12:51;;;;;;;3.47;3.37;;;41.00;26.60;;;;;;5130903;28;20533;-85
2022/08/14 12:15:32;;;;;;;3.30;3.10;;;41.30;26.20;;;;;;5131341;28;20470;-85
2022/08/14 12:18:00;;;;;;;3.83;3.63;;;41.30;25.00;;;;;;5110132;28;20591;-85
2022/08/14 12:20:31;;;;;;;3.40;3.30;;;41.60;25.40;;;;;;5109833;28;20447;-85
2022/08/14 12:22:59;;;;;;;3.60;3.47;;;41.50;24.50;;;;;;5109640;28;20478;-86
2022/08/14 12:25:26;;;;;;;3.03;2.90;;;41.80;24.70;;;;;;5110658;28;20543;-85
2022/08/14 12:27:54;;;;;;;3.50;3.30;;;41.70;24.60;;;;;;5130030;28;20450;-85
2022/08/14 12:30:32;;;;;;;3.03;2.83;;;42.10;24.20;;;;;;5132300;28;20460;-85
2022/08/14 12:33:00;;;;;;;3.90;3.70;;;42.50;24.20;;;;;;5131509;28;20442;-86
2022/08/14 12:35:37;;;;;;;3.60;3.40;;;42.40;23.50;;;;;;5130471;28;20504;-85
2022/08/14 12:38:03;;;;;;;3.27;3.10;;;42.70;22.90;;;;;;5131623;28;20461;-85
2022/08/14 12:40:31;;;;;;;3.80;3.60;;;42.80;23.60;;;;;;5131705;28;20434;-85
2022/08/14 12:43:01;;;;;;;3.57;3.33;;;43.10;23.00;;;;;;5130160;28;20453;-86
2022/08/14 12:45:35;;;;;;;2.70;2.60;;;43.70;23.20;;;;;;5132662;28;20481;-85
2022/08/14 12:48:04;;;;;;;3.67;3.37;;;42.80;21.00;;;;;;5131087;28;20868;-86
2022/08/14 12:50:38;;;;;;;2.70;2.50;;;42.60;21.80;;;;;;5119302;28;20456;-84
2022/08/14 12:53:06;;;;;;;2.63;2.53;;;42.30;21.80;;;;;;5097047;28;20473;-84
2022/08/14 12:55:34;;;;;;;2.70;2.60;;;42.50;22.50;;;;;;5111418;28;20569;-84
2022/08/14 12:58:04;;;;;;;2.80;2.60;;;42.70;21.30;;;;;;5116977;28;20493;-84
2022/08/14 13:00:33;;;;;;;2.47;2.37;;;43.10;21.40;;;;;;5113440;28;20461;-84
2022/08/14 13:03:00;;;;;;;2.70;2.60;;;43.10;21.40;;;;;;5117155;28;20457;-84
2022/08/14 13:05:30;;;;;;;2.27;2.17;;;43.40;21.30;;;;;;5116672;28;20473;-84
2022/08/14 13:07:58;;;;;;;2.20;2.10;;;43.40;20.90;;;;;;5116826;28;20450;-84
2022/08/14 13:10:25;;;;;;;2.47;2.37;;;43.50;21.30;;;;;;5117284;28;20528;-84